עמוד ראשי
METAR-TAF:

METAR-TAF

שדות תעופה :

עמאן, ירדן

קו רוחב: 31-59N, קו אורך: 035-59E, גובה: 767מטר

תצפית מזג אוויר נוכחית

הדו"ח נערך לפני 28דקות, בשעה 16:00 UTC
רוח 8קשר מכיוון מערב
טמפרטורת 30 צלסיוס
לחות 33%
לחץ 1011 hPa
ראות: 6000מטר

METAR: OJAM 241600Z 26008KT 6000 NSC 30/12 Q1011 NOSIG

זמן: 19:28 (16:28 UTC)

תחזית

הדו"ח נערך לפני 5 שעות ו 55דקות, בשעה 10:33 UTC
תחזית בתוקף מ 24 ב 12 UTC עד 25 ב 18 UTC
רוח 10קשר מכיוון מערב
ראות: 5000מטר
אובך
הסתברות 40% :
זמנית מ -
24 ב 12 UTC עד 24 ב 16 UTC
רוח 20קשר מכיוון מערב/צפון-מערב
ראות: 4000מטר
מעט עננים בגובה 3000רגל
אבק נושב
הסתברות 40% :
זמנית מ -
25 ב 12 UTC עד 25 ב 15 UTC
רוח 20קשר מכיוון מערב/צפון-מערב
ראות: 4000מטר
אבק נושב,

TAF: OJAM 241033Z 2412/2518 28010KT 5000 HZ NSC PROB40 TEMPO 2412/2416 29020KT 4000 BLDU FEW030 PROB40 TEMPO 2512/2515 29020KT 4000 BLDU

תצפיות ותחזיות מזג אוויר לגבי יותר מ- 4,000 שדות תעופה ברחבי העולם. דוחות METAR ו- TAF.

התחנות הזמינות מסומנות בנקודות צהובות ואדומות על גבי המפה.

העבר את העכבר לנקודה הצבעונית על מנת לראות את שם התחנה.

לאחר מכן, לחץ כדי לראות את תוכן ואת תחזיות מזג האוויר.

כדי לשנות את המפה: לחץ על הכפתורים הירוקים עם הפלוס השחור כדי להתקרב; על הכפתור הירוק עם המקף כדי להתרחק; או בחיצים הירוקים למפות סמוכות.


METAR-TAF: